sensor_id;sensor_type;location;lat;lon;timestamp;pressure;altitude;pressure_sealevel;temperature;humidity
18985;BME280;9626;52.552;13.436;2023-06-14T00:02:09;101184.97;;;15.93;82.19
18985;BME280;9626;52.552;13.436;2023-06-14T00:04:35;101188.94;;;15.81;82.53
18985;BME280;9626;52.552;13.436;2023-06-14T00:07:02;101197.94;;;15.77;83.40
18985;BME280;9626;52.552;13.436;2023-06-14T00:09:28;101185.53;;;15.76;83.96
18985;BME280;9626;52.552;13.436;2023-06-14T00:11:54;101191.84;;;15.74;84.54
18985;BME280;9626;52.552;13.436;2023-06-14T00:14:20;101198.03;;;15.74;84.79
18985;BME280;9626;52.552;13.436;2023-06-14T00:16:46;101194.94;;;15.60;86.00
18985;BME280;9626;52.552;13.436;2023-06-14T00:19:13;101198.44;;;15.62;86.56
18985;BME280;9626;52.552;13.436;2023-06-14T00:21:40;101197.97;;;15.49;87.99
18985;BME280;9626;52.552;13.436;2023-06-14T00:24:07;101203.97;;;15.55;87.85
18985;BME280;9626;52.552;13.436;2023-06-14T00:26:33;101195.25;;;15.50;88.49
18985;BME280;9626;52.552;13.436;2023-06-14T00:28:59;101198.91;;;15.48;89.02
18985;BME280;9626;52.552;13.436;2023-06-14T00:31:25;101194.38;;;15.50;89.15
18985;BME280;9626;52.552;13.436;2023-06-14T00:33:51;101196.19;;;15.49;89.31
18985;BME280;9626;52.552;13.436;2023-06-14T00:36:17;101200.38;;;15.57;88.94
18985;BME280;9626;52.552;13.436;2023-06-14T00:38:43;101199.66;;;15.51;89.34
18985;BME280;9626;52.552;13.436;2023-06-14T00:41:09;101193.91;;;15.37;91.21
18985;BME280;9626;52.552;13.436;2023-06-14T00:43:35;101199.91;;;15.44;91.13
18985;BME280;9626;52.552;13.436;2023-06-14T00:46:01;101192.44;;;15.27;92.06
18985;BME280;9626;52.552;13.436;2023-06-14T00:48:28;101202.94;;;15.03;94.97
18985;BME280;9626;52.552;13.436;2023-06-14T00:50:55;101201.72;;;15.13;95.30
18985;BME280;9626;52.552;13.436;2023-06-14T00:53:21;101192.81;;;15.14;95.97
18985;BME280;9626;52.552;13.436;2023-06-14T00:55:48;101205.13;;;15.18;95.87
18985;BME280;9626;52.552;13.436;2023-06-14T00:58:15;101202.81;;;15.36;95.09
18985;BME280;9626;52.552;13.436;2023-06-14T01:00:41;101199.91;;;15.44;93.94
18985;BME280;9626;52.552;13.436;2023-06-14T01:03:07;101187.88;;;15.30;95.97
18985;BME280;9626;52.552;13.436;2023-06-14T01:05:38;101194.00;;;15.34;96.12
18985;BME280;9626;52.552;13.436;2023-06-14T01:08:37;101188.84;;;15.28;97.75
18985;BME280;9626;52.552;13.436;2023-06-14T01:11:29;101192.44;;;15.27;99.75
18985;BME280;9626;52.552;13.436;2023-06-14T01:13:57;101192.19;;;15.34;98.88
18985;BME280;9626;52.552;13.436;2023-06-14T01:16:26;101191.00;;;15.16;100.00
18985;BME280;9626;52.552;13.436;2023-06-14T01:18:53;101190.56;;;15.00;100.00
18985;BME280;9626;52.552;13.436;2023-06-14T01:21:25;101195.03;;;15.00;100.00
18985;BME280;9626;52.552;13.436;2023-06-14T01:23:52;101187.84;;;15.02;100.00
18985;BME280;9626;52.552;13.436;2023-06-14T01:26:22;101198.31;;;15.10;100.00
18985;BME280;9626;52.552;13.436;2023-06-14T01:28:49;101197.06;;;15.20;100.00
18985;BME280;9626;52.552;13.436;2023-06-14T01:31:20;101197.72;;;15.00;100.00
18985;BME280;9626;52.552;13.436;2023-06-14T01:33:50;101198.06;;;14.87;100.00
18985;BME280;9626;52.552;13.436;2023-06-14T01:36:19;101191.91;;;14.85;100.00
18985;BME280;9626;52.552;13.436;2023-06-14T01:38:46;101191.31;;;14.76;100.00
18985;BME280;9626;52.552;13.436;2023-06-14T01:41:14;101200.91;;;14.81;100.00
18985;BME280;9626;52.552;13.436;2023-06-14T01:43:41;101194.66;;;14.82;100.00
18985;BME280;9626;52.552;13.436;2023-06-14T01:46:08;101191.81;;;14.88;100.00
18985;BME280;9626;52.552;13.436;2023-06-14T01:48:35;101191.91;;;14.85;100.00
18985;BME280;9626;52.552;13.436;2023-06-14T01:51:01;101200.44;;;14.98;100.00
18985;BME280;9626;52.552;13.436;2023-06-14T01:53:27;101192.44;;;14.97;100.00
18985;BME280;9626;52.552;13.436;2023-06-14T01:55:53;101189.97;;;14.91;100.00
18985;BME280;9626;52.552;13.436;2023-06-14T01:58:20;101191.56;;;14.66;100.00
18985;BME280;9626;52.552;13.436;2023-06-14T02:00:46;101191.38;;;14.40;100.00
18985;BME280;9626;52.552;13.436;2023-06-14T02:03:31;101188.94;;;14.32;100.00
18985;BME280;9626;52.552;13.436;2023-06-14T02:06:16;101196.69;;;14.41;100.00
18985;BME280;9626;52.552;13.436;2023-06-14T02:09:01;101199.41;;;14.38;100.00
18985;BME280;9626;52.552;13.436;2023-06-14T02:11:29;101200.19;;;14.43;100.00
18985;BME280;9626;52.552;13.436;2023-06-14T02:13:55;101203.47;;;14.20;100.00
18985;BME280;9626;52.552;13.436;2023-06-14T02:16:22;101202.03;;;14.41;100.00
18985;BME280;9626;52.552;13.436;2023-06-14T02:18:48;101215.34;;;14.40;100.00
18985;BME280;9626;52.552;13.436;2023-06-14T02:21:14;101210.97;;;14.39;100.00
18985;BME280;9626;52.552;13.436;2023-06-14T02:23:40;101212.75;;;14.38;100.00
18985;BME280;9626;52.552;13.436;2023-06-14T02:26:07;101204.69;;;14.40;100.00
18985;BME280;9626;52.552;13.436;2023-06-14T02:28:33;101203.84;;;14.39;100.00
18985;BME280;9626;52.552;13.436;2023-06-14T02:30:59;101202.41;;;14.26;100.00
18985;BME280;9626;52.552;13.436;2023-06-14T02:33:26;101204.03;;;14.31;100.00
18985;BME280;9626;52.552;13.436;2023-06-14T02:35:52;101205.69;;;14.35;100.00
18985;BME280;9626;52.552;13.436;2023-06-14T02:38:18;101205.31;;;14.18;100.00
18985;BME280;9626;52.552;13.436;2023-06-14T02:40:44;101200.75;;;14.22;100.00
18985;BME280;9626;52.552;13.436;2023-06-14T02:43:10;101203.31;;;14.26;100.00
18985;BME280;9626;52.552;13.436;2023-06-14T02:45:36;101209.38;;;14.31;100.00
18985;BME280;9626;52.552;13.436;2023-06-14T02:48:02;101202.75;;;14.13;100.00
18985;BME280;9626;52.552;13.436;2023-06-14T02:50:28;101209.28;;;14.00;100.00
18985;BME280;9626;52.552;13.436;2023-06-14T02:52:56;101212.13;;;13.94;100.00
18985;BME280;9626;52.552;13.436;2023-06-14T02:55:22;101214.84;;;13.92;100.00
18985;BME280;9626;52.552;13.436;2023-06-14T02:57:48;101212.91;;;13.99;100.00
18985;BME280;9626;52.552;13.436;2023-06-14T03:00:15;101206.94;;;13.88;100.00
18985;BME280;9626;52.552;13.436;2023-06-14T03:02:41;101199.66;;;13.96;100.00
18985;BME280;9626;52.552;13.436;2023-06-14T03:05:08;101188.09;;;13.97;100.00
18985;BME280;9626;52.552;13.436;2023-06-14T03:07:35;101206.28;;;13.79;100.00
18985;BME280;9626;52.552;13.436;2023-06-14T03:10:09;101193.66;;;13.88;100.00
18985;BME280;9626;52.552;13.436;2023-06-14T03:12:35;101204.03;;;13.62;100.00
18985;BME280;9626;52.552;13.436;2023-06-14T03:15:02;101205.28;;;13.47;100.00
18985;BME280;9626;52.552;13.436;2023-06-14T03:17:28;101203.66;;;13.40;100.00
18985;BME280;9626;52.552;13.436;2023-06-14T03:19:58;101204.53;;;13.41;100.00
18985;BME280;9626;52.552;13.436;2023-06-14T03:22:23;101206.09;;;13.49;100.00
18985;BME280;9626;52.552;13.436;2023-06-14T03:24:52;101203.13;;;13.63;100.00
18985;BME280;9626;52.552;13.436;2023-06-14T03:27:17;101202.41;;;13.57;100.00
18985;BME280;9626;52.552;13.436;2023-06-14T03:29:44;101206.19;;;13.46;100.00
18985;BME280;9626;52.552;13.436;2023-06-14T03:32:10;101203.63;;;13.42;100.00
18985;BME280;9626;52.552;13.436;2023-06-14T03:34:36;101212.41;;;13.45;100.00
18985;BME280;9626;52.552;13.436;2023-06-14T03:37:04;101205.50;;;13.74;100.00
18985;BME280;9626;52.552;13.436;2023-06-14T03:39:30;101214.25;;;13.79;100.00
18985;BME280;9626;52.552;13.436;2023-06-14T03:41:57;101217.22;;;13.67;100.00
18985;BME280;9626;52.552;13.436;2023-06-14T03:44:23;101216.91;;;13.79;100.00
18985;BME280;9626;52.552;13.436;2023-06-14T03:46:49;101221.97;;;13.90;100.00
18985;BME280;9626;52.552;13.436;2023-06-14T03:49:15;101214.63;;;13.64;100.00
18985;BME280;9626;52.552;13.436;2023-06-14T03:51:42;101225.38;;;13.59;100.00
18985;BME280;9626;52.552;13.436;2023-06-14T03:54:08;101224.56;;;13.57;100.00
18985;BME280;9626;52.552;13.436;2023-06-14T03:56:34;101221.56;;;13.71;100.00
18985;BME280;9626;52.552;13.436;2023-06-14T03:59:01;101219.97;;;13.64;100.00
18985;BME280;9626;52.552;13.436;2023-06-14T04:01:28;101238.47;;;13.68;100.00
18985;BME280;9626;52.552;13.436;2023-06-14T04:03:56;101240.94;;;13.76;100.00
18985;BME280;9626;52.552;13.436;2023-06-14T04:06:23;101243.41;;;13.85;100.00
18985;BME280;9626;52.552;13.436;2023-06-14T04:08:51;101240.94;;;13.76;100.00
18985;BME280;9626;52.552;13.436;2023-06-14T04:11:17;101242.06;;;13.67;100.00
18985;BME280;9626;52.552;13.436;2023-06-14T04:13:44;101249.75;;;13.78;100.00
18985;BME280;9626;52.552;13.436;2023-06-14T04:16:10;101244.31;;;13.84;100.00
18985;BME280;9626;52.552;13.436;2023-06-14T04:18:36;101244.38;;;13.81;100.00
18985;BME280;9626;52.552;13.436;2023-06-14T04:21:02;101250.41;;;13.90;100.00
18985;BME280;9626;52.552;13.436;2023-06-14T04:23:28;101241.16;;;14.05;100.00
18985;BME280;9626;52.552;13.436;2023-06-14T04:25:54;101245.59;;;14.04;100.00
18985;BME280;9626;52.552;13.436;2023-06-14T04:28:20;101247.25;;;14.08;100.00
18985;BME280;9626;52.552;13.436;2023-06-14T04:30:46;101242.78;;;14.10;100.00
18985;BME280;9626;52.552;13.436;2023-06-14T04:33:14;101255.19;;;14.11;100.00
18985;BME280;9626;52.552;13.436;2023-06-14T04:35:40;101243.31;;;14.23;100.00
18985;BME280;9626;52.552;13.436;2023-06-14T04:38:06;101243.28;;;14.25;100.00
18985;BME280;9626;52.552;13.436;2023-06-14T04:40:35;101238.34;;;14.09;100.00
18985;BME280;9626;52.552;13.436;2023-06-14T04:43:09;101242.31;;;14.27;100.00
18985;BME280;9626;52.552;13.436;2023-06-14T04:45:37;101240.41;;;14.32;100.00
18985;BME280;9626;52.552;13.436;2023-06-14T04:48:05;101247.50;;;14.33;100.00
18985;BME280;9626;52.552;13.436;2023-06-14T04:50:32;101250.94;;;14.39;100.00
18985;BME280;9626;52.552;13.436;2023-06-14T04:52:58;101249.84;;;14.46;100.00
18985;BME280;9626;52.552;13.436;2023-06-14T04:55:25;101250.41;;;14.57;100.00
18985;BME280;9626;52.552;13.436;2023-06-14T04:57:52;101256.75;;;14.53;100.00
18985;BME280;9626;52.552;13.436;2023-06-14T05:00:20;101257.44;;;14.60;100.00
18985;BME280;9626;52.552;13.436;2023-06-14T05:02:46;101255.69;;;14.60;100.00
18985;BME280;9626;52.552;13.436;2023-06-14T05:05:12;101251.16;;;14.64;100.00
18985;BME280;9626;52.552;13.436;2023-06-14T05:07:38;101255.63;;;14.63;100.00
18985;BME280;9626;52.552;13.436;2023-06-14T05:10:05;101251.38;;;14.54;100.00
18985;BME280;9626;52.552;13.436;2023-06-14T05:12:32;101248.78;;;14.51;100.00
18985;BME280;9626;52.552;13.436;2023-06-14T05:15:00;101247.03;;;14.50;100.00
18985;BME280;9626;52.552;13.436;2023-06-14T05:17:26;101248.50;;;14.62;100.00
18985;BME280;9626;52.552;13.436;2023-06-14T05:19:54;101248.44;;;14.65;100.00
18985;BME280;9626;52.552;13.436;2023-06-14T05:22:21;101258.91;;;14.73;100.00
18985;BME280;9626;52.552;13.436;2023-06-14T05:24:48;101259.41;;;14.87;100.00
18985;BME280;9626;52.552;13.436;2023-06-14T05:27:14;101267.09;;;14.97;100.00
18985;BME280;9626;52.552;13.436;2023-06-14T05:29:40;101271.31;;;15.06;100.00
18985;BME280;9626;52.552;13.436;2023-06-14T05:32:06;101264.00;;;15.12;100.00
18985;BME280;9626;52.552;13.436;2023-06-14T05:34:32;101263.06;;;15.13;100.00
18985;BME280;9626;52.552;13.436;2023-06-14T05:36:58;101268.41;;;15.13;100.00
18985;BME280;9626;52.552;13.436;2023-06-14T05:39:24;101271.91;;;15.15;100.00
18985;BME280;9626;52.552;13.436;2023-06-14T05:41:50;101274.31;;;15.25;100.00
18985;BME280;9626;52.552;13.436;2023-06-14T05:44:16;101284.09;;;15.24;100.00
18985;BME280;9626;52.552;13.436;2023-06-14T05:46:43;101283.06;;;15.30;100.00
18985;BME280;9626;52.552;13.436;2023-06-14T05:49:09;101267.69;;;15.38;100.00
18985;BME280;9626;52.552;13.436;2023-06-14T05:51:35;101275.59;;;15.41;100.00
18985;BME280;9626;52.552;13.436;2023-06-14T05:54:01;101278.06;;;15.47;100.00
18985;BME280;9626;52.552;13.436;2023-06-14T05:56:27;101288.94;;;15.41;100.00
18985;BME280;9626;52.552;13.436;2023-06-14T05:58:55;101292.53;;;15.40;100.00
18985;BME280;9626;52.552;13.436;2023-06-14T06:01:21;101295.66;;;15.54;100.00
18985;BME280;9626;52.552;13.436;2023-06-14T06:03:47;101303.38;;;15.64;100.00
18985;BME280;9626;52.552;13.436;2023-06-14T06:06:13;101291.00;;;15.89;100.00
18985;BME280;9626;52.552;13.436;2023-06-14T06:08:40;101292.66;;;15.94;100.00
18985;BME280;9626;52.552;13.436;2023-06-14T06:11:06;101289.97;;;15.94;100.00
18985;BME280;9626;52.552;13.436;2023-06-14T06:13:32;101284.84;;;15.87;100.00
18985;BME280;9626;52.552;13.436;2023-06-14T06:15:58;101282.44;;;15.78;100.00
18985;BME280;9626;52.552;13.436;2023-06-14T06:18:24;101286.81;;;15.82;100.00
18985;BME280;9626;52.552;13.436;2023-06-14T06:20:50;101287.16;;;15.70;100.00
18985;BME280;9626;52.552;13.436;2023-06-14T06:23:16;101282.09;;;15.61;100.00
18985;BME280;9626;52.552;13.436;2023-06-14T06:25:43;101287.38;;;15.62;100.00
18985;BME280;9626;52.552;13.436;2023-06-14T06:28:09;101290.84;;;15.66;100.00
18985;BME280;9626;52.552;13.436;2023-06-14T06:30:35;101279.25;;;15.67;100.00
18985;BME280;9626;52.552;13.436;2023-06-14T06:33:02;101287.78;;;15.78;100.00
18985;BME280;9626;52.552;13.436;2023-06-14T06:35:28;101285.03;;;15.81;100.00
18985;BME280;9626;52.552;13.436;2023-06-14T06:37:56;101287.53;;;15.87;100.00
18985;BME280;9626;52.552;13.436;2023-06-14T06:40:22;101282.03;;;15.92;100.00
18985;BME280;9626;52.552;13.436;2023-06-14T06:42:48;101275.78;;;15.93;100.00
18985;BME280;9626;52.552;13.436;2023-06-14T06:45:15;101276.63;;;15.94;100.00
18985;BME280;9626;52.552;13.436;2023-06-14T06:47:41;101283.00;;;15.89;100.00
18985;BME280;9626;52.552;13.436;2023-06-14T06:50:08;101290.25;;;15.86;100.00
18985;BME280;9626;52.552;13.436;2023-06-14T06:52:34;101286.50;;;15.92;100.00
18985;BME280;9626;52.552;13.436;2023-06-14T06:55:01;101285.38;;;15.99;100.00
18985;BME280;9626;52.552;13.436;2023-06-14T06:57:27;101285.25;;;16.02;100.00
18985;BME280;9626;52.552;13.436;2023-06-14T06:59:55;101289.50;;;16.09;100.00
18985;BME280;9626;52.552;13.436;2023-06-14T07:02:21;101292.97;;;16.11;100.00
18985;BME280;9626;52.552;13.436;2023-06-14T07:04:47;101307.19;;;16.13;100.00
18985;BME280;9626;52.552;13.436;2023-06-14T07:07:13;101308.72;;;16.20;100.00
18985;BME280;9626;52.552;13.436;2023-06-14T07:09:39;101310.72;;;16.14;100.00
18985;BME280;9626;52.552;13.436;2023-06-14T07:12:07;101315.03;;;16.18;100.00
18985;BME280;9626;52.552;13.436;2023-06-14T07:14:33;101319.28;;;16.23;100.00
18985;BME280;9626;52.552;13.436;2023-06-14T07:16:59;101314.56;;;16.32;100.00
18985;BME280;9626;52.552;13.436;2023-06-14T07:19:25;101321.72;;;16.31;100.00
18985;BME280;9626;52.552;13.436;2023-06-14T07:21:51;101325.31;;;16.30;100.00
18985;BME280;9626;52.552;13.436;2023-06-14T07:24:18;101323.28;;;16.37;100.00
18985;BME280;9626;52.552;13.436;2023-06-14T07:26:44;101317.75;;;16.43;100.00
18985;BME280;9626;52.552;13.436;2023-06-14T07:29:10;101322.06;;;16.47;100.00
18985;BME280;9626;52.552;13.436;2023-06-14T07:31:36;101321.97;;;16.50;100.00
18985;BME280;9626;52.552;13.436;2023-06-14T07:34:02;101328.94;;;16.54;100.00
18985;BME280;9626;52.552;13.436;2023-06-14T07:36:28;101318.69;;;16.67;100.00
18985;BME280;9626;52.552;13.436;2023-06-14T07:38:54;101324.38;;;16.83;100.00
18985;BME280;9626;52.552;13.436;2023-06-14T07:41:20;101324.84;;;16.96;100.00
18985;BME280;9626;52.552;13.436;2023-06-14T07:43:46;101326.19;;;17.08;100.00
18985;BME280;9626;52.552;13.436;2023-06-14T07:46:12;101327.41;;;17.23;100.00
18985;BME280;9626;52.552;13.436;2023-06-14T07:48:38;101326.91;;;17.37;100.00
18985;BME280;9626;52.552;13.436;2023-06-14T07:51:04;101329.13;;;17.49;100.00
18985;BME280;9626;52.552;13.436;2023-06-14T07:53:31;101321.69;;;17.56;100.00
18985;BME280;9626;52.552;13.436;2023-06-14T07:55:57;101322.25;;;17.66;100.00
18985;BME280;9626;52.552;13.436;2023-06-14T07:58:23;101324.53;;;17.75;100.00
18985;BME280;9626;52.552;13.436;2023-06-14T08:00:49;101322.81;;;17.74;99.48
18985;BME280;9626;52.552;13.436;2023-06-14T08:03:15;101323.78;;;17.95;97.60
18985;BME280;9626;52.552;13.436;2023-06-14T08:05:42;101320.28;;;18.15;95.33
18985;BME280;9626;52.552;13.436;2023-06-14T08:08:08;101310.59;;;18.33;94.46
18985;BME280;9626;52.552;13.436;2023-06-14T08:10:34;101314.28;;;18.31;92.59
18985;BME280;9626;52.552;13.436;2023-06-14T08:13:00;101308.13;;;18.29;93.19
18985;BME280;9626;52.552;13.436;2023-06-14T08:15:26;101313.84;;;18.19;91.17
18985;BME280;9626;52.552;13.436;2023-06-14T08:17:52;101312.69;;;18.04;92.61
18985;BME280;9626;52.552;13.436;2023-06-14T08:20:18;101310.13;;;18.01;93.32
18985;BME280;9626;52.552;13.436;2023-06-14T08:22:44;101310.88;;;18.05;91.96
18985;BME280;9626;52.552;13.436;2023-06-14T08:25:12;101314.00;;;18.16;93.34
18985;BME280;9626;52.552;13.436;2023-06-14T08:27:39;101310.44;;;18.36;91.71
18985;BME280;9626;52.552;13.436;2023-06-14T08:30:06;101303.38;;;18.56;92.17
18985;BME280;9626;52.552;13.436;2023-06-14T08:32:34;101305.00;;;18.60;86.72
18985;BME280;9626;52.552;13.436;2023-06-14T08:35:00;101297.41;;;18.70;85.87
18985;BME280;9626;52.552;13.436;2023-06-14T08:37:26;101305.84;;;18.81;83.97
18985;BME280;9626;52.552;13.436;2023-06-14T08:39:52;101311.59;;;18.94;84.42
18985;BME280;9626;52.552;13.436;2023-06-14T08:42:18;101311.34;;;18.99;84.28
18985;BME280;9626;52.552;13.436;2023-06-14T08:44:47;101305.22;;;18.97;82.68
18985;BME280;9626;52.552;13.436;2023-06-14T08:47:13;101295.25;;;18.78;82.91
18985;BME280;9626;52.552;13.436;2023-06-14T08:49:43;101299.94;;;18.73;83.35
18985;BME280;9626;52.552;13.436;2023-06-14T08:52:11;101299.41;;;18.65;80.92
18985;BME280;9626;52.552;13.436;2023-06-14T08:54:40;101301.41;;;18.59;79.92
18985;BME280;9626;52.552;13.436;2023-06-14T08:57:11;101304.06;;;18.61;78.93
18985;BME280;9626;52.552;13.436;2023-06-14T08:59:46;101299.28;;;18.68;81.59
18985;BME280;9626;52.552;13.436;2023-06-14T09:02:15;101303.97;;;18.83;77.69
18985;BME280;9626;52.552;13.436;2023-06-14T09:04:43;101312.44;;;18.95;76.76
18985;BME280;9626;52.552;13.436;2023-06-14T09:07:11;101304.75;;;19.06;76.65
18985;BME280;9626;52.552;13.436;2023-06-14T09:09:39;101306.09;;;19.16;75.62
18985;BME280;9626;52.552;13.436;2023-06-14T09:12:10;101309.53;;;19.20;73.64
18985;BME280;9626;52.552;13.436;2023-06-14T09:14:36;101305.53;;;19.29;72.38
18985;BME280;9626;52.552;13.436;2023-06-14T09:17:05;101314.09;;;19.37;71.75
18985;BME280;9626;52.552;13.436;2023-06-14T09:19:33;101312.06;;;19.23;71.02
18985;BME280;9626;52.552;13.436;2023-06-14T09:22:00;101314.06;;;19.18;72.84
18985;BME280;9626;52.552;13.436;2023-06-14T09:24:26;101323.09;;;19.36;73.85
18985;BME280;9626;52.552;13.436;2023-06-14T09:26:53;101312.50;;;19.33;72.38
18985;BME280;9626;52.552;13.436;2023-06-14T09:29:19;101315.84;;;19.38;73.23
18985;BME280;9626;52.552;13.436;2023-06-14T09:31:46;101321.50;;;19.51;74.32
18985;BME280;9626;52.552;13.436;2023-06-14T09:34:13;101327.38;;;19.59;73.59
18985;BME280;9626;52.552;13.436;2023-06-14T09:36:39;101321.66;;;19.67;73.27
18985;BME280;9626;52.552;13.436;2023-06-14T09:39:05;101323.00;;;19.75;74.08
18985;BME280;9626;52.552;13.436;2023-06-14T09:41:39;101314.25;;;19.72;70.38
18985;BME280;9626;52.552;13.436;2023-06-14T09:44:07;101319.69;;;19.70;69.59
18985;BME280;9626;52.552;13.436;2023-06-14T09:46:34;101314.25;;;19.72;69.51
18985;BME280;9626;52.552;13.436;2023-06-14T09:49:02;101315.03;;;19.74;70.04
18985;BME280;9626;52.552;13.436;2023-06-14T09:51:28;101317.59;;;19.77;70.03
18985;BME280;9626;52.552;13.436;2023-06-14T09:54:02;101322.84;;;19.80;69.33
18985;BME280;9626;52.552;13.436;2023-06-14T09:56:37;101319.22;;;19.81;68.34
18985;BME280;9626;52.552;13.436;2023-06-14T09:59:05;101327.91;;;19.86;70.60
18985;BME280;9626;52.552;13.436;2023-06-14T10:01:34;101315.63;;;19.81;70.52
18985;BME280;9626;52.552;13.436;2023-06-14T10:04:07;101312.66;;;19.87;68.86
18985;BME280;9626;52.552;13.436;2023-06-14T10:06:37;101322.53;;;19.86;68.47
18985;BME280;9626;52.552;13.436;2023-06-14T10:09:07;101322.38;;;19.70;69.10
18985;BME280;9626;52.552;13.436;2023-06-14T10:11:35;101328.78;;;19.68;68.65
18985;BME280;9626;52.552;13.436;2023-06-14T10:14:04;101319.22;;;19.81;69.66
18985;BME280;9626;52.552;13.436;2023-06-14T10:16:33;101324.44;;;19.84;68.08
18985;BME280;9626;52.552;13.436;2023-06-14T10:21:46;101316.13;;;19.89;70.09
18985;BME280;9626;52.552;13.436;2023-06-14T10:24:19;101317.22;;;19.85;68.89
18985;BME280;9626;52.552;13.436;2023-06-14T10:26:53;101316.38;;;19.84;68.47
18985;BME280;9626;52.552;13.436;2023-06-14T10:29:19;101310.63;;;19.92;68.21
18985;BME280;9626;52.552;13.436;2023-06-14T10:31:50;101314.81;;;19.98;67.30
18985;BME280;9626;52.552;13.436;2023-06-14T10:37:13;101305.34;;;20.08;65.26
18985;BME280;9626;52.552;13.436;2023-06-14T10:39:43;101309.50;;;20.15;65.18
18985;BME280;9626;52.552;13.436;2023-06-14T10:42:12;101313.59;;;20.22;63.74
18985;BME280;9626;52.552;13.436;2023-06-14T10:44:45;101300.00;;;20.25;64.13
18985;BME280;9626;52.552;13.436;2023-06-14T10:47:34;101299.63;;;20.33;64.65
18985;BME280;9626;52.552;13.436;2023-06-14T10:50:04;101304.81;;;20.36;64.27
18985;BME280;9626;52.552;13.436;2023-06-14T10:52:34;101294.63;;;20.43;62.63
18985;BME280;9626;52.552;13.436;2023-06-14T10:57:30;101286.31;;;20.48;63.30
18985;BME280;9626;52.552;13.436;2023-06-14T11:00:00;101289.41;;;20.57;62.57
18985;BME280;9626;52.552;13.436;2023-06-14T11:02:43;101290.75;;;20.66;62.55
18985;BME280;9626;52.552;13.436;2023-06-14T11:05:14;101280.84;;;20.67;63.58
18985;BME280;9626;52.552;13.436;2023-06-14T11:10:39;101286.56;;;20.60;61.03
18985;BME280;9626;52.552;13.436;2023-06-14T11:13:06;101282.75;;;20.65;62.34
18985;BME280;9626;52.552;13.436;2023-06-14T11:15:34;101274.84;;;20.62;59.48
18985;BME280;9626;52.552;13.436;2023-06-14T11:18:07;101274.59;;;20.66;59.69
18985;BME280;9626;52.552;13.436;2023-06-14T11:20:35;101275.47;;;20.67;58.28
18985;BME280;9626;52.552;13.436;2023-06-14T11:23:02;101275.94;;;20.75;57.68
18985;BME280;9626;52.552;13.436;2023-06-14T11:25:29;101276.59;;;20.80;57.24
18985;BME280;9626;52.552;13.436;2023-06-14T11:27:56;101263.13;;;20.80;57.27
18985;BME280;9626;52.552;13.436;2023-06-14T11:30:23;101251.25;;;20.84;56.03
18985;BME280;9626;52.552;13.436;2023-06-14T11:32:50;101255.69;;;20.85;55.79
18985;BME280;9626;52.552;13.436;2023-06-14T11:35:18;101255.59;;;20.87;55.77
18985;BME280;9626;52.552;13.436;2023-06-14T11:37:45;101247.03;;;20.96;54.75
18985;BME280;9626;52.552;13.436;2023-06-14T11:40:12;101247.50;;;21.20;55.29
18985;BME280;9626;52.552;13.436;2023-06-14T11:42:40;101249.44;;;21.34;55.08
18985;BME280;9626;52.552;13.436;2023-06-14T11:45:11;101254.63;;;21.37;53.72
18985;BME280;9626;52.552;13.436;2023-06-14T11:47:39;101246.31;;;21.58;54.27
18985;BME280;9626;52.552;13.436;2023-06-14T11:50:07;101241.69;;;21.44;53.47
18985;BME280;9626;52.552;13.436;2023-06-14T11:52:35;101240.25;;;21.54;52.98
18985;BME280;9626;52.552;13.436;2023-06-14T11:55:02;101229.28;;;21.57;53.20
18985;BME280;9626;52.552;13.436;2023-06-14T11:57:34;101230.31;;;21.71;52.33
18985;BME280;9626;52.552;13.436;2023-06-14T12:00:04;101228.91;;;21.64;50.89
18985;BME280;9626;52.552;13.436;2023-06-14T12:02:41;101224.41;;;21.64;51.81
18985;BME280;9626;52.552;13.436;2023-06-14T12:05:08;101225.47;;;21.61;51.57
18985;BME280;9626;52.552;13.436;2023-06-14T12:07:39;101215.38;;;21.65;52.17
18985;BME280;9626;52.552;13.436;2023-06-14T12:10:07;101215.19;;;21.68;51.78
18985;BME280;9626;52.552;13.436;2023-06-14T12:12:39;101212.59;;;21.67;50.27
18985;BME280;9626;52.552;13.436;2023-06-14T12:15:06;101209.81;;;21.68;49.74
18985;BME280;9626;52.552;13.436;2023-06-14T12:17:34;101208.28;;;21.78;46.96
18985;BME280;9626;52.552;13.436;2023-06-14T12:20:06;101212.31;;;21.71;48.31
18985;BME280;9626;52.552;13.436;2023-06-14T12:22:37;101205.38;;;21.67;47.86
18985;BME280;9626;52.552;13.436;2023-06-14T12:25:04;101192.75;;;21.68;47.77
18985;BME280;9626;52.552;13.436;2023-06-14T12:27:31;101196.78;;;21.60;48.43
18985;BME280;9626;52.552;13.436;2023-06-14T12:30:02;101192.75;;;21.68;47.92
18985;BME280;9626;52.552;13.436;2023-06-14T12:32:28;101186.09;;;21.89;46.73
18985;BME280;9626;52.552;13.436;2023-06-14T12:34:55;101182.66;;;21.87;46.75
18985;BME280;9626;52.552;13.436;2023-06-14T12:37:21;101178.34;;;21.99;47.01
18985;BME280;9626;52.552;13.436;2023-06-14T12:39:47;101183.75;;;21.99;46.24
18985;BME280;9626;52.552;13.436;2023-06-14T12:42:13;101190.03;;;22.14;46.91
18985;BME280;9626;52.552;13.436;2023-06-14T12:44:40;101191.84;;;21.99;45.06
18985;BME280;9626;52.552;13.436;2023-06-14T12:47:08;101180.91;;;21.86;46.81
18985;BME280;9626;52.552;13.436;2023-06-14T12:49:34;101187.34;;;21.84;46.61
18985;BME280;9626;52.552;13.436;2023-06-14T12:52:00;101180.41;;;21.80;44.99
18985;BME280;9626;52.552;13.436;2023-06-14T12:54:26;101180.59;;;21.76;47.57
18985;BME280;9626;52.552;13.436;2023-06-14T12:56:52;101173.97;;;21.82;46.40
18985;BME280;9626;52.552;13.436;2023-06-14T12:59:18;101169.19;;;22.02;45.25